createdAt,value
2023-02-19T00:03:14.414Z,101567.38
2023-02-19T00:08:16.121Z,101570.28
2023-02-19T00:13:18.955Z,101576.53
2023-02-19T00:18:23.993Z,101574.59
2023-02-19T00:23:29.248Z,101576.66
2023-02-19T00:28:38.284Z,101573.16
2023-02-19T00:33:41.540Z,101580.16
2023-02-19T00:38:48.037Z,101572.44
2023-02-19T00:43:55.132Z,101564.75
2023-02-19T00:49:00.011Z,101564.88
2023-02-19T00:54:04.676Z,101567.53
2023-02-19T00:59:08.851Z,101560.56
2023-02-19T01:04:10.884Z,101562.50
2023-02-19T01:09:13.610Z,101561.63
2023-02-19T01:14:16.180Z,101566.94
2023-02-19T01:19:17.936Z,101567.06
2023-02-19T01:24:21.871Z,101573.22
2023-02-19T01:29:23.577Z,101573.47
2023-02-19T01:34:33.240Z,101577.78
2023-02-19T01:39:39.095Z,101570.94
2023-02-19T01:44:40.760Z,101583.47
2023-02-19T01:49:53.773Z,101587.94
2023-02-19T01:54:59.724Z,101581.75
2023-02-19T02:00:13.450Z,101584.28
2023-02-19T02:05:30.796Z,101579.84
2023-02-19T02:10:34.705Z,101587.19
2023-02-19T02:15:50.846Z,101587.56
2023-02-19T02:21:05.760Z,101588.78
2023-02-19T02:26:28.828Z,101583.72
2023-02-19T02:31:39.949Z,101591.81
2023-02-19T02:36:44.901Z,101603.25
2023-02-19T02:42:17.925Z,101598.66
2023-02-19T02:47:41.851Z,101601.41
2023-02-19T02:53:05.426Z,101604.31
2023-02-19T02:58:10.843Z,101611.44
2023-02-19T03:03:14.352Z,101616.13
2023-02-19T03:08:19.933Z,101628.91
2023-02-19T03:13:53.881Z,101641.63
2023-02-19T03:19:17.073Z,101647.19
2023-02-19T03:24:49.082Z,101655.25
2023-02-19T03:29:52.375Z,101652.97
2023-02-19T03:34:57.135Z,101655.97
2023-02-19T03:39:59.444Z,101675.59
2023-02-19T03:45:25.551Z,101689.03
2023-02-19T03:50:52.483Z,101694.47
2023-02-19T03:56:14.179Z,101712.03
2023-02-19T04:01:29.733Z,101724.19
2023-02-19T04:06:32.204Z,101733.81
2023-02-19T04:11:34.172Z,101728.88
2023-02-19T04:16:44.719Z,101743.06
2023-02-19T04:21:50.392Z,101750.06
2023-02-19T04:26:56.285Z,101746.81
2023-02-19T04:31:58.470Z,101758.47
2023-02-19T04:37:04.797Z,101775.75
2023-02-19T04:42:06.508Z,101778.53
2023-02-19T04:47:10.782Z,101790.28
2023-02-19T04:52:14.914Z,101795.94
2023-02-19T04:57:26.200Z,101800.69
2023-02-19T05:02:31.168Z,101807.81
2023-02-19T05:07:33.692Z,101819.84
2023-02-19T05:12:35.398Z,101835.06
2023-02-19T05:17:41.796Z,101842.66
2023-02-19T05:22:46.006Z,101854.59
2023-02-19T05:27:49.946Z,101860.72
2023-02-19T05:32:51.666Z,101868.34
2023-02-19T05:37:53.566Z,101873.19
2023-02-19T05:42:55.288Z,101879.09
2023-02-19T05:47:57.705Z,101882.34
2023-02-19T05:53:04.108Z,101879.59
2023-02-19T05:58:05.856Z,101887.16
2023-02-19T06:03:07.521Z,101898.81
2023-02-19T06:08:13.919Z,101912.50
2023-02-19T06:13:23.040Z,101918.56
2023-02-19T06:18:25.830Z,101923.56
2023-02-19T06:23:28.776Z,101925.72
2023-02-19T06:28:32.724Z,101950.69
2023-02-19T06:33:35.120Z,101961.09
2023-02-19T06:38:36.829Z,101982.25
2023-02-19T06:43:38.751Z,101998.00
2023-02-19T06:48:44.163Z,102020.75
2023-02-19T06:53:46.867Z,102032.25
2023-02-19T06:58:54.656Z,102046.34
2023-02-19T07:03:58.700Z,102048.59
2023-02-19T07:09:01.008Z,102056.75
2023-02-19T07:14:08.888Z,102061.59
2023-02-19T07:19:15.459Z,102060.47
2023-02-19T07:24:17.192Z,102069.69
2023-02-19T07:29:18.884Z,102076.34
2023-02-19T07:34:20.949Z,102079.63
2023-02-19T07:39:22.597Z,102095.69
2023-02-19T07:44:24.281Z,102096.31
2023-02-19T07:49:31.262Z,102085.44
2023-02-19T07:54:37.704Z,102092.13
2023-02-19T07:59:42.520Z,102097.84
2023-02-19T08:04:48.744Z,102106.22
2023-02-19T08:10:13.262Z,102103.03
2023-02-19T08:15:18.088Z,102118.81
2023-02-19T08:20:30.022Z,102115.41
2023-02-19T08:25:31.725Z,102121.13
2023-02-19T08:30:40.188Z,102123.63
2023-02-19T08:35:43.026Z,102136.44
2023-02-19T08:40:44.768Z,102153.41
2023-02-19T08:45:47.684Z,102168.53
2023-02-19T08:51:03.771Z,102162.66
2023-02-19T08:56:13.637Z,102182.03
2023-02-19T09:01:19.072Z,102191.13
2023-02-19T09:06:23.627Z,102214.84
2023-02-19T09:11:28.699Z,102228.19
2023-02-19T09:16:34.169Z,102235.34
2023-02-19T09:21:38.966Z,102257.13
2023-02-19T09:26:40.805Z,102255.28
2023-02-19T09:31:48.164Z,102265.84
2023-02-19T09:36:53.231Z,102271.81
2023-02-19T09:41:56.116Z,102287.50
2023-02-19T09:46:59.012Z,102294.50
2023-02-19T09:52:07.697Z,102301.19
2023-02-19T09:57:20.718Z,102310.34
2023-02-19T10:02:27.712Z,102293.53
2023-02-19T10:07:41.957Z,102301.06
2023-02-19T10:12:50.710Z,102293.66
2023-02-19T10:17:55.304Z,102300.25
2023-02-19T10:23:07.767Z,102317.53
2023-02-19T10:28:18.202Z,102324.31
2023-02-19T10:33:20.638Z,102336.25
2023-02-19T10:38:26.127Z,102353.63
2023-02-19T10:43:40.009Z,102370.53
2023-02-19T10:48:50.116Z,102370.97
2023-02-19T10:54:09.828Z,102378.13
2023-02-19T10:59:25.736Z,102371.16
2023-02-19T11:04:35.219Z,102384.56
2023-02-19T11:09:47.506Z,102385.22
2023-02-19T11:14:51.824Z,102384.09
2023-02-19T11:20:02.009Z,102372.97
2023-02-19T11:25:17.976Z,102375.59
2023-02-19T11:30:35.637Z,102377.16
2023-02-19T11:35:37.950Z,102377.63
2023-02-19T11:41:04.411Z,102366.47
2023-02-19T11:46:44.101Z,102380.75
2023-02-19T11:51:57.764Z,102381.44
2023-02-19T11:57:28.887Z,102389.63
2023-02-19T12:02:42.227Z,102377.44
2023-02-19T12:08:05.634Z,102382.78
2023-02-19T12:13:39.299Z,102383.34
2023-02-19T12:18:53.427Z,102376.53
2023-02-19T12:24:22.753Z,102367.97
2023-02-19T12:29:34.309Z,102374.28
2023-02-19T12:34:50.702Z,102373.34
2023-02-19T12:40:17.348Z,102389.94
2023-02-19T12:45:37.922Z,102399.88
2023-02-19T12:50:45.529Z,102394.19
2023-02-19T12:55:48.322Z,102395.34
2023-02-19T13:00:53.980Z,102383.41
2023-02-19T13:05:59.298Z,102369.03
2023-02-19T13:11:09.397Z,102370.31
2023-02-19T13:16:19.043Z,102386.13
2023-02-19T13:21:44.479Z,102403.84
2023-02-19T13:27:04.709Z,102404.91
2023-02-19T13:32:42.746Z,102406.31
2023-02-19T13:37:45.033Z,102413.66
2023-02-19T13:43:02.333Z,102412.97
2023-02-19T13:48:23.533Z,102412.81
2023-02-19T13:53:51.882Z,102400.59
2023-02-19T13:59:11.281Z,102407.81
2023-02-19T14:04:23.206Z,102397.06
2023-02-19T14:09:43.929Z,102389.47
2023-02-19T14:14:54.068Z,102378.28
2023-02-19T14:19:57.038Z,102353.31
2023-02-19T14:25:00.569Z,102346.25
2023-02-19T14:30:02.833Z,102335.72
2023-02-19T14:35:16.619Z,102329.28
2023-02-19T14:40:34.657Z,102337.50
2023-02-19T14:45:42.389Z,102347.78
2023-02-19T14:50:49.258Z,102340.03
2023-02-19T14:55:54.571Z,102334.22
2023-02-19T15:00:59.548Z,102336.22
2023-02-19T15:06:07.994Z,102348.28
2023-02-19T15:11:17.247Z,102361.84
2023-02-19T15:16:21.489Z,102363.09
2023-02-19T15:21:35.703Z,102367.66
2023-02-19T15:26:46.779Z,102370.41
2023-02-19T15:31:53.866Z,102371.81
2023-02-19T15:37:05.039Z,102362.53
2023-02-19T15:42:15.452Z,102365.16
2023-02-19T15:47:29.783Z,102366.94
2023-02-19T15:52:50.505Z,102367.81
2023-02-19T15:58:09.801Z,102365.25
2023-02-19T16:03:25.602Z,102365.13
2023-02-19T16:08:39.650Z,102369.31
2023-02-19T16:13:45.571Z,102381.06
2023-02-19T16:18:51.560Z,102395.88
2023-02-19T16:24:16.335Z,102395.00
2023-02-19T16:29:24.183Z,102385.13
2023-02-19T16:34:34.345Z,102391.38
2023-02-19T16:39:38.404Z,102400.78
2023-02-19T16:44:40.368Z,102403.25
2023-02-19T16:49:48.389Z,102400.94
2023-02-19T16:54:50.179Z,102421.94
2023-02-19T16:59:58.365Z,102418.06
2023-02-19T17:05:00.703Z,102422.25
2023-02-19T17:10:03.107Z,102411.47
2023-02-19T17:15:05.096Z,102421.50
2023-02-19T17:20:17.011Z,102415.56
2023-02-19T17:25:21.137Z,102415.03
2023-02-19T17:30:28.969Z,102416.81
2023-02-19T17:35:30.782Z,102406.44
2023-02-19T17:40:33.855Z,102409.81
2023-02-19T17:45:38.534Z,102411.63
2023-02-19T17:50:40.536Z,102412.59
2023-02-19T17:55:50.334Z,102420.06
2023-02-19T18:00:53.006Z,102408.69
2023-02-19T18:05:57.241Z,102408.94
2023-02-19T18:11:00.945Z,102411.06
2023-02-19T18:16:04.982Z,102411.41
2023-02-19T18:21:13.630Z,102406.94
2023-02-19T18:26:25.879Z,102404.19
2023-02-19T18:31:32.783Z,102397.75
2023-02-19T18:36:37.335Z,102401.09
2023-02-19T18:41:39.383Z,102407.09
2023-02-19T18:46:45.847Z,102393.16
2023-02-19T18:51:49.889Z,102380.44
2023-02-19T18:56:54.310Z,102375.81
2023-02-19T19:01:59.518Z,102372.00
2023-02-19T19:07:01.347Z,102366.88
2023-02-19T19:12:05.814Z,102357.75
2023-02-19T19:17:09.952Z,102356.06
2023-02-19T19:22:15.216Z,102364.16
2023-02-19T19:27:21.749Z,102366.91
2023-02-19T19:32:23.758Z,102356.47
2023-02-19T19:37:29.497Z,102355.53
2023-02-19T19:42:31.320Z,102360.84
2023-02-19T19:47:35.181Z,102350.97
2023-02-19T19:52:39.446Z,102338.56
2023-02-19T19:57:43.947Z,102331.66
2023-02-19T20:02:48.986Z,102323.94
2023-02-19T20:07:53.464Z,102335.94
2023-02-19T20:12:55.110Z,102322.59
2023-02-19T20:18:02.017Z,102317.19
2023-02-19T20:23:07.018Z,102313.72
2023-02-19T20:28:08.797Z,102301.84
2023-02-19T20:33:15.026Z,102316.78
2023-02-19T20:38:17.121Z,102312.66
2023-02-19T20:43:19.129Z,102308.19
2023-02-19T20:48:20.826Z,102306.28
2023-02-19T20:53:22.730Z,102301.41
2023-02-19T20:58:24.818Z,102285.16
2023-02-19T21:03:31.305Z,102271.47
2023-02-19T21:08:36.407Z,102282.72
2023-02-19T21:13:44.973Z,102270.03
2023-02-19T21:18:46.834Z,102265.03
2023-02-19T21:23:57.497Z,102281.53
2023-02-19T21:29:01.391Z,102268.69
2023-02-19T21:34:11.114Z,102286.53
2023-02-19T21:39:17.063Z,102291.72
2023-02-19T21:44:26.483Z,102303.28
2023-02-19T21:49:30.575Z,102305.00
2023-02-19T21:54:32.325Z,102305.00
2023-02-19T21:59:39.108Z,102306.66
2023-02-19T22:04:41.228Z,102291.59
2023-02-19T22:09:42.883Z,102304.84
2023-02-19T22:14:45.342Z,102296.81
2023-02-19T22:19:47.755Z,102287.03
2023-02-19T22:24:51.717Z,102288.59
2023-02-19T22:29:53.674Z,102280.78
2023-02-19T22:34:57.590Z,102283.44
2023-02-19T22:40:03.347Z,102267.28
2023-02-19T22:45:06.120Z,102256.69
2023-02-19T22:50:09.056Z,102248.81
2023-02-19T22:55:15.266Z,102249.69
2023-02-19T23:00:21.041Z,102245.22
2023-02-19T23:05:24.526Z,102242.56
2023-02-19T23:10:27.056Z,102227.41
2023-02-19T23:15:31.081Z,102209.56
2023-02-19T23:20:35.238Z,102201.38
2023-02-19T23:25:36.940Z,102198.63
2023-02-19T23:30:38.720Z,102179.81
2023-02-19T23:35:42.801Z,102164.63
2023-02-19T23:40:45.348Z,102156.47
2023-02-19T23:45:49.987Z,102159.59
2023-02-19T23:50:56.962Z,102135.72
2023-02-19T23:56:02.636Z,102119.91
